createdAt,value
2023-03-06T00:00:27.090Z,96869.86
2023-03-06T00:03:14.645Z,96870.62
2023-03-06T00:05:42.762Z,96872.55
2023-03-06T00:08:11.411Z,96872.88
2023-03-06T00:10:40.342Z,96872.38
2023-03-06T00:13:15.704Z,96870.99
2023-03-06T00:15:43.539Z,96869.10
2023-03-06T00:18:11.632Z,96869.14
2023-03-06T00:20:41.511Z,96870.16
2023-03-06T00:23:11.097Z,96867.77
2023-03-06T00:25:43.183Z,96868.23
2023-03-06T00:28:12.502Z,96869.14
2023-03-06T00:30:40.558Z,96866.00
2023-03-06T00:33:10.254Z,96867.10
2023-03-06T00:35:42.157Z,96872.34
2023-03-06T00:38:12.520Z,96869.02
2023-03-06T00:40:40.629Z,96869.28
2023-03-06T00:43:08.587Z,96869.39
2023-03-06T00:45:36.723Z,96869.00
2023-03-06T00:48:06.394Z,96869.52
2023-03-06T00:50:35.402Z,96871.21
2023-03-06T00:53:03.459Z,96873.14
2023-03-06T00:55:33.507Z,96876.92
2023-03-06T00:58:01.883Z,96875.72
2023-03-06T01:00:29.925Z,96870.56
2023-03-06T01:02:57.939Z,96874.88
2023-03-06T01:05:26.676Z,96870.92
2023-03-06T01:07:54.887Z,96873.71
2023-03-06T01:10:22.988Z,96876.27
2023-03-06T01:12:51.419Z,96875.06
2023-03-06T01:15:20.299Z,96876.84
2023-03-06T01:17:52.061Z,96875.54
2023-03-06T01:20:20.566Z,96876.28
2023-03-06T01:22:48.560Z,96880.11
2023-03-06T01:25:16.700Z,96878.44
2023-03-06T01:27:44.677Z,96876.13
2023-03-06T01:30:13.317Z,96879.36
2023-03-06T01:32:41.492Z,96883.27
2023-03-06T01:35:10.121Z,96881.91
2023-03-06T01:37:39.058Z,96879.71
2023-03-06T01:40:11.568Z,96876.05
2023-03-06T01:42:39.695Z,96876.93
2023-03-06T01:45:13.880Z,96875.88
2023-03-06T01:47:42.794Z,96876.23
2023-03-06T01:50:13.062Z,96871.21
2023-03-06T01:52:53.167Z,96871.82
2023-03-06T01:55:28.211Z,96871.13
2023-03-06T01:57:59.303Z,96870.51
2023-03-06T02:00:29.668Z,96872.55
2023-03-06T02:03:09.114Z,96873.73
2023-03-06T02:05:41.266Z,96878.12
2023-03-06T02:08:12.875Z,96878.67
2023-03-06T02:11:22.446Z,96879.15
2023-03-06T02:13:52.601Z,96880.61
2023-03-06T02:16:26.512Z,96882.12
2023-03-06T02:18:54.771Z,96881.61
2023-03-06T02:21:27.034Z,96881.80
2023-03-06T02:24:15.483Z,96879.43
2023-03-06T02:26:45.523Z,96880.60
2023-03-06T02:29:20.115Z,96882.61
2023-03-06T02:31:48.253Z,96885.16
2023-03-06T02:34:16.144Z,96887.06
2023-03-06T02:36:59.547Z,96886.52
2023-03-06T02:39:31.492Z,96886.05
2023-03-06T02:41:59.801Z,96890.13
2023-03-06T02:44:30.607Z,96890.34
2023-03-06T02:46:59.777Z,96885.67
2023-03-06T02:49:28.809Z,96885.98
2023-03-06T02:51:56.986Z,96883.80
2023-03-06T02:54:24.887Z,96887.94
2023-03-06T02:56:52.864Z,96885.67
2023-03-06T02:59:20.832Z,96883.05
2023-03-06T03:01:49.312Z,96884.08
2023-03-06T03:04:17.341Z,96887.41
2023-03-06T03:06:45.372Z,96891.83
2023-03-06T03:09:14.120Z,96892.42
2023-03-06T03:11:42.068Z,96893.95
2023-03-06T03:14:11.247Z,96897.21
2023-03-06T03:16:39.383Z,96890.02
2023-03-06T03:19:07.552Z,96889.88
2023-03-06T03:21:35.782Z,96887.87
2023-03-06T03:24:03.938Z,96883.30
2023-03-06T03:26:31.991Z,96883.56
2023-03-06T03:29:12.980Z,96886.55
2023-03-06T03:31:41.000Z,96889.90
2023-03-06T03:34:09.051Z,96884.62
2023-03-06T03:36:39.495Z,96888.44
2023-03-06T03:39:08.653Z,96894.34
2023-03-06T03:41:37.390Z,96893.71
2023-03-06T03:44:07.971Z,96892.24
2023-03-06T03:46:36.612Z,96889.68
2023-03-06T03:49:06.375Z,96892.53
2023-03-06T03:51:34.394Z,96893.30
2023-03-06T03:54:02.760Z,96893.73
2023-03-06T03:56:36.184Z,96895.08
2023-03-06T03:59:09.281Z,96895.20
2023-03-06T04:01:43.180Z,96898.52
2023-03-06T04:04:12.037Z,96900.16
2023-03-06T04:06:42.732Z,96898.84
2023-03-06T04:09:11.143Z,96907.64
2023-03-06T04:11:40.422Z,96905.22
2023-03-06T04:14:10.054Z,96908.17
2023-03-06T04:16:39.850Z,96913.11
2023-03-06T04:19:08.531Z,96913.55
2023-03-06T04:21:36.923Z,96915.66
2023-03-06T04:24:07.410Z,96919.80
2023-03-06T04:26:37.010Z,96919.39
2023-03-06T04:29:05.904Z,96918.96
2023-03-06T04:31:34.663Z,96914.02
2023-03-06T04:34:02.878Z,96916.77
2023-03-06T04:36:34.008Z,96922.39
2023-03-06T04:39:14.731Z,96923.55
2023-03-06T04:41:44.265Z,96920.35
2023-03-06T04:44:13.221Z,96919.45
2023-03-06T04:46:42.568Z,96919.11
2023-03-06T04:49:10.955Z,96918.84
2023-03-06T04:51:38.972Z,96917.09
2023-03-06T04:54:07.005Z,96917.54
2023-03-06T04:56:35.305Z,96917.90
2023-03-06T04:59:05.186Z,96916.80
2023-03-06T05:01:33.243Z,96917.77
2023-03-06T05:04:01.273Z,96919.86
2023-03-06T05:06:31.088Z,96922.78
2023-03-06T05:08:59.052Z,96924.95
2023-03-06T05:11:27.386Z,96927.38
2023-03-06T05:14:16.803Z,96928.88
2023-03-06T05:16:44.967Z,96930.00
2023-03-06T05:19:13.161Z,96935.16
2023-03-06T05:21:41.114Z,96936.16
2023-03-06T05:24:11.355Z,96942.85
2023-03-06T05:26:39.579Z,96945.23
2023-03-06T05:29:07.698Z,96944.27
2023-03-06T05:31:35.798Z,96947.70
2023-03-06T05:34:04.002Z,96951.35
2023-03-06T05:36:52.548Z,96950.94
2023-03-06T05:39:21.507Z,96952.10
2023-03-06T05:41:50.416Z,96954.23
2023-03-06T05:44:19.278Z,96953.61
2023-03-06T05:46:49.865Z,96951.38
2023-03-06T05:49:38.160Z,96958.98
2023-03-06T05:52:07.314Z,96953.73
2023-03-06T05:54:37.481Z,96957.63
2023-03-06T05:57:06.164Z,96964.14
2023-03-06T05:59:36.172Z,96970.21
2023-03-06T06:02:07.042Z,96965.19
2023-03-06T06:04:35.376Z,96964.73
2023-03-06T06:07:17.283Z,96966.11
2023-03-06T06:09:47.902Z,96964.49
2023-03-06T06:12:16.109Z,96966.30
2023-03-06T06:14:44.821Z,96965.21
2023-03-06T06:17:13.035Z,96962.52
2023-03-06T06:19:41.096Z,96965.14
2023-03-06T06:22:09.714Z,96967.10
2023-03-06T06:24:39.084Z,96970.12
2023-03-06T06:27:07.509Z,96970.25
2023-03-06T06:29:36.112Z,96967.40
2023-03-06T06:32:05.375Z,96964.95
2023-03-06T06:34:34.342Z,96973.27
2023-03-06T06:37:04.861Z,96979.27
2023-03-06T06:39:32.908Z,96976.83
2023-03-06T06:42:28.199Z,96971.80
2023-03-06T06:44:50.420Z,96973.44
2023-03-06T06:47:23.089Z,96973.61
2023-03-06T06:49:54.443Z,96974.95
2023-03-06T06:52:23.758Z,96977.86
2023-03-06T06:54:53.544Z,96980.60
2023-03-06T06:57:22.138Z,96975.25
2023-03-06T06:59:53.389Z,96977.15
2023-03-06T07:02:22.165Z,96975.67
2023-03-06T07:05:03.449Z,96975.83
2023-03-06T07:07:39.846Z,96975.16
2023-03-06T07:10:13.773Z,96976.02
2023-03-06T07:12:42.474Z,96976.63
2023-03-06T07:15:15.344Z,96976.13
2023-03-06T07:17:44.221Z,96979.85
2023-03-06T07:20:13.243Z,96976.34
2023-03-06T07:22:50.764Z,96979.29
2023-03-06T07:25:20.290Z,96976.70
2023-03-06T07:27:53.920Z,96981.02
2023-03-06T07:30:25.328Z,96980.63
2023-03-06T07:32:56.269Z,96981.17
2023-03-06T07:35:27.594Z,96981.64
2023-03-06T07:38:06.599Z,96984.86
2023-03-06T07:40:36.769Z,96983.60
2023-03-06T07:43:18.798Z,96982.91
2023-03-06T07:45:58.666Z,96985.73
2023-03-06T07:48:27.737Z,96987.02
2023-03-06T07:51:03.387Z,96983.44
2023-03-06T07:53:35.945Z,96981.30
2023-03-06T07:56:11.332Z,96985.88
2023-03-06T07:58:45.744Z,96985.13
2023-03-06T08:01:20.176Z,96984.02
2023-03-06T08:03:51.733Z,96986.88
2023-03-06T08:06:26.048Z,96987.29
2023-03-06T08:08:55.920Z,96989.50
2023-03-06T08:11:28.678Z,96988.91
2023-03-06T08:14:08.510Z,96990.27
2023-03-06T08:16:37.124Z,96994.96
2023-03-06T08:19:06.320Z,96997.16
2023-03-06T08:21:35.723Z,96994.44
2023-03-06T08:24:07.423Z,96990.41
2023-03-06T08:26:35.841Z,96997.77
2023-03-06T08:29:06.233Z,96998.42
2023-03-06T08:31:42.862Z,97001.80
2023-03-06T08:34:15.495Z,96999.73
2023-03-06T08:36:44.218Z,96993.23
2023-03-06T08:39:14.158Z,96999.48
2023-03-06T08:41:45.072Z,96999.28
2023-03-06T08:44:17.368Z,96996.14
2023-03-06T08:46:49.696Z,96997.29
2023-03-06T08:49:18.025Z,96994.52
2023-03-06T08:51:52.847Z,96998.55
2023-03-06T08:54:28.045Z,96996.17
2023-03-06T08:56:57.294Z,96995.11
2023-03-06T08:59:25.654Z,96995.11
2023-03-06T09:01:54.191Z,96996.84
2023-03-06T09:04:24.877Z,96992.04
2023-03-06T09:06:55.470Z,96990.90
2023-03-06T09:09:24.306Z,96989.17
2023-03-06T09:11:56.701Z,96992.45
2023-03-06T09:14:33.168Z,96996.27
2023-03-06T09:17:11.632Z,96997.10
2023-03-06T09:19:40.731Z,96992.54
2023-03-06T09:22:12.438Z,96998.50
2023-03-06T09:24:43.399Z,96997.98
2023-03-06T09:27:12.203Z,97003.90
2023-03-06T09:29:43.112Z,96998.73
2023-03-06T09:32:13.490Z,96994.26
2023-03-06T09:34:42.121Z,96993.55
2023-03-06T09:37:11.591Z,96998.17
2023-03-06T09:39:47.183Z,96993.81
2023-03-06T09:42:25.239Z,96991.34
2023-03-06T09:45:01.737Z,96989.69
2023-03-06T09:48:08.098Z,96991.62
2023-03-06T09:50:43.103Z,96993.50
2023-03-06T09:53:50.427Z,96994.42
2023-03-06T09:56:21.078Z,96991.02
2023-03-06T09:59:00.993Z,96991.02
2023-03-06T10:01:35.189Z,96992.14
2023-03-06T10:04:23.233Z,96990.98
2023-03-06T10:07:24.118Z,96988.02
2023-03-06T10:10:00.809Z,96982.06
2023-03-06T10:12:38.846Z,96987.39
2023-03-06T10:15:28.038Z,96985.27
2023-03-06T10:17:57.248Z,96985.30
2023-03-06T10:20:52.491Z,96983.19
2023-03-06T10:23:43.306Z,96977.09
2023-03-06T10:26:22.931Z,96979.81
2023-03-06T10:28:59.889Z,96980.43
2023-03-06T10:31:28.963Z,96978.29
2023-03-06T10:34:11.173Z,96974.98
2023-03-06T10:36:39.799Z,96979.30
2023-03-06T10:39:20.442Z,96975.80
2023-03-06T10:41:50.528Z,96971.48
2023-03-06T10:44:38.370Z,96969.67
2023-03-06T10:47:30.463Z,96964.88
2023-03-06T10:53:05.790Z,96959.01
2023-03-06T10:55:38.050Z,96957.15
2023-03-06T10:58:23.284Z,96957.35
2023-03-06T11:01:23.784Z,96952.32
2023-03-06T11:03:54.220Z,96941.60
2023-03-06T11:06:37.176Z,96937.64
2023-03-06T11:09:26.453Z,96936.95
2023-03-06T11:12:29.547Z,96932.83
2023-03-06T11:15:15.552Z,96930.23
2023-03-06T11:18:04.516Z,96919.96
2023-03-06T11:20:48.648Z,96919.80
2023-03-06T11:23:38.357Z,96916.70
2023-03-06T11:26:16.233Z,96917.09
2023-03-06T11:29:29.578Z,96922.65
2023-03-06T11:32:37.072Z,96917.96
2023-03-06T11:35:13.658Z,96907.77
2023-03-06T11:38:04.935Z,96907.78
2023-03-06T11:40:58.210Z,96896.67
2023-03-06T11:44:01.767Z,96895.73
2023-03-06T11:46:46.716Z,96892.77
2023-03-06T11:49:39.713Z,96887.23
2023-03-06T11:52:35.914Z,96877.96
2023-03-06T11:55:04.719Z,96872.89
2023-03-06T11:58:05.500Z,96870.13
2023-03-06T12:00:53.950Z,96868.12
2023-03-06T12:03:52.104Z,96869.31
2023-03-06T12:06:52.130Z,96863.84
2023-03-06T12:09:48.085Z,96861.77
2023-03-06T12:12:40.286Z,96860.17
2023-03-06T12:15:14.274Z,96854.56
2023-03-06T12:18:03.631Z,96856.25
2023-03-06T12:20:41.836Z,96854.95
2023-03-06T12:23:35.133Z,96850.75
2023-03-06T12:26:19.043Z,96846.86
2023-03-06T12:29:21.362Z,96843.84
2023-03-06T12:32:29.431Z,96838.99
2023-03-06T12:35:38.961Z,96832.16
2023-03-06T12:38:35.023Z,96830.30
2023-03-06T12:41:28.787Z,96830.88
2023-03-06T12:44:18.673Z,96832.72
2023-03-06T12:46:54.715Z,96831.97
2023-03-06T12:49:33.035Z,96829.22
2023-03-06T12:52:05.104Z,96824.89
2023-03-06T12:54:41.073Z,96821.11
2023-03-06T12:57:13.691Z,96819.27
2023-03-06T12:59:47.449Z,96814.11
2023-03-06T13:02:29.084Z,96813.41
2023-03-06T13:05:24.962Z,96809.27
2023-03-06T13:07:54.956Z,96810.86
2023-03-06T13:10:35.997Z,96801.76
2023-03-06T13:13:34.320Z,96794.30
2023-03-06T13:16:12.400Z,96782.10
2023-03-06T13:18:44.049Z,96778.84
2023-03-06T13:22:03.218Z,96775.80
2023-03-06T13:24:37.372Z,96774.94
2023-03-06T13:27:09.049Z,96778.94
2023-03-06T13:29:40.254Z,96780.52
2023-03-06T13:32:14.800Z,96779.85
2023-03-06T13:34:48.816Z,96776.13
2023-03-06T13:37:17.158Z,96771.59
2023-03-06T13:40:00.596Z,96773.09
2023-03-06T13:42:34.459Z,96772.33
2023-03-06T13:45:23.734Z,96772.12
2023-03-06T13:48:43.832Z,96769.64
2023-03-06T13:51:27.207Z,96769.26
2023-03-06T13:54:24.565Z,96765.84
2023-03-06T13:57:09.059Z,96761.58
2023-03-06T14:00:26.657Z,96760.34
2023-03-06T14:03:33.210Z,96756.48
2023-03-06T14:06:02.050Z,96757.10
2023-03-06T14:08:35.035Z,96759.02
2023-03-06T14:11:19.515Z,96756.74
2023-03-06T14:13:53.964Z,96756.27
2023-03-06T14:16:40.513Z,96755.98
2023-03-06T14:19:19.051Z,96753.36
2023-03-06T14:21:55.899Z,96751.45
2023-03-06T14:24:54.638Z,96748.90
2023-03-06T14:28:09.145Z,96746.64
2023-03-06T14:30:50.144Z,96744.59
2023-03-06T14:33:44.706Z,96741.60
2023-03-06T14:36:20.072Z,96737.98
2023-03-06T14:38:54.344Z,96741.83
2023-03-06T14:41:32.201Z,96744.38
2023-03-06T14:44:19.269Z,96743.23
2023-03-06T14:46:57.614Z,96743.52
2023-03-06T14:49:26.893Z,96741.71
2023-03-06T14:51:58.302Z,96739.00
2023-03-06T14:54:30.068Z,96734.73
2023-03-06T14:57:08.819Z,96734.54
2023-03-06T14:59:45.743Z,96734.30
2023-03-06T15:02:21.733Z,96738.30
2023-03-06T15:05:02.914Z,96732.33
2023-03-06T15:07:33.899Z,96729.44
2023-03-06T15:10:07.163Z,96730.55
2023-03-06T15:12:37.019Z,96735.70
2023-03-06T15:15:12.034Z,96733.54
2023-03-06T15:17:46.104Z,96731.48
2023-03-06T15:20:43.955Z,96728.09
2023-03-06T15:23:36.129Z,96726.09
2023-03-06T15:26:32.804Z,96731.14
2023-03-06T15:29:11.362Z,96727.08
2023-03-06T15:31:42.751Z,96731.75
2023-03-06T15:34:26.011Z,96725.89
2023-03-06T15:36:58.064Z,96727.01
2023-03-06T15:39:29.129Z,96726.27
2023-03-06T15:42:20.653Z,96729.77
2023-03-06T15:44:55.774Z,96733.60
2023-03-06T15:47:23.896Z,96735.27
2023-03-06T15:49:53.427Z,96734.55
2023-03-06T15:52:23.353Z,96732.65
2023-03-06T15:54:51.769Z,96731.11
2023-03-06T15:57:27.520Z,96736.58
2023-03-06T15:59:56.728Z,96737.13
2023-03-06T16:02:25.674Z,96737.07
2023-03-06T16:04:54.285Z,96740.59
2023-03-06T16:07:23.566Z,96736.66
2023-03-06T16:09:51.910Z,96735.28
2023-03-06T16:12:22.726Z,96733.71
2023-03-06T16:14:51.843Z,96736.09
2023-03-06T16:17:20.860Z,96737.42
2023-03-06T16:19:51.440Z,96733.48
2023-03-06T16:22:22.253Z,96735.75
2023-03-06T16:24:51.099Z,96734.80
2023-03-06T16:27:20.579Z,96741.09
2023-03-06T16:29:48.824Z,96737.71
2023-03-06T16:32:18.321Z,96734.92
2023-03-06T16:34:46.423Z,96732.23
2023-03-06T16:37:14.565Z,96730.38
2023-03-06T16:39:42.720Z,96731.12
2023-03-06T16:42:12.046Z,96730.53
2023-03-06T16:44:40.345Z,96731.89
2023-03-06T16:47:12.640Z,96723.46
2023-03-06T16:49:43.399Z,96724.02
2023-03-06T16:52:12.258Z,96720.47
2023-03-06T16:54:42.398Z,96724.20
2023-03-06T16:57:15.683Z,96729.02
2023-03-06T16:59:45.361Z,96726.73
2023-03-06T17:02:15.426Z,96726.08
2023-03-06T17:04:43.848Z,96723.48
2023-03-06T17:07:12.939Z,96722.17
2023-03-06T17:09:42.938Z,96723.15
2023-03-06T17:12:11.807Z,96719.45
2023-03-06T17:14:39.864Z,96718.82
2023-03-06T17:17:09.002Z,96715.32
2023-03-06T17:19:37.366Z,96712.26
2023-03-06T17:22:05.533Z,96714.23
2023-03-06T17:24:35.592Z,96714.23
2023-03-06T17:27:03.689Z,96709.10
2023-03-06T17:29:31.874Z,96706.94
2023-03-06T17:32:04.155Z,96705.73
2023-03-06T17:34:32.408Z,96708.55
2023-03-06T17:37:01.906Z,96701.89
2023-03-06T17:39:35.504Z,96696.39
2023-03-06T17:42:04.874Z,96693.02
2023-03-06T17:44:34.529Z,96692.64
2023-03-06T17:47:03.952Z,96695.58
2023-03-06T17:49:32.412Z,96694.81
2023-03-06T17:52:03.553Z,96689.15
2023-03-06T17:54:33.747Z,96687.65
2023-03-06T17:57:03.764Z,96687.85
2023-03-06T17:59:34.346Z,96689.67
2023-03-06T18:02:03.309Z,96690.88
2023-03-06T18:04:32.462Z,96691.25
2023-03-06T18:07:00.599Z,96686.92
2023-03-06T18:09:29.606Z,96683.26
2023-03-06T18:11:57.849Z,96681.04
2023-03-06T18:14:26.040Z,96685.02
2023-03-06T18:16:54.125Z,96686.33
2023-03-06T18:19:22.223Z,96684.66
2023-03-06T18:21:54.339Z,96683.02
2023-03-06T18:24:22.411Z,96683.14
2023-03-06T18:26:52.483Z,96680.40
2023-03-06T18:29:20.462Z,96681.73
2023-03-06T18:31:51.147Z,96676.84
2023-03-06T18:34:22.668Z,96680.14
2023-03-06T18:36:52.533Z,96680.52
2023-03-06T18:39:21.560Z,96678.21
2023-03-06T18:41:52.143Z,96677.33
2023-03-06T18:44:20.564Z,96678.34
2023-03-06T18:46:48.613Z,96678.50
2023-03-06T18:49:16.920Z,96677.14
2023-03-06T18:51:45.077Z,96676.84
2023-03-06T18:54:13.819Z,96672.15
2023-03-06T18:56:44.226Z,96670.77
2023-03-06T18:59:18.205Z,96666.06
2023-03-06T19:01:48.163Z,96662.22
2023-03-06T19:04:16.916Z,96662.02
2023-03-06T19:06:44.850Z,96664.06
2023-03-06T19:09:13.137Z,96661.79
2023-03-06T19:11:42.768Z,96655.25
2023-03-06T19:14:10.887Z,96651.90
2023-03-06T19:16:39.234Z,96647.94
2023-03-06T19:19:07.565Z,96651.64
2023-03-06T19:21:35.632Z,96649.88
2023-03-06T19:24:06.624Z,96649.44
2023-03-06T19:26:35.722Z,96648.36
2023-03-06T19:29:04.442Z,96650.50
2023-03-06T19:31:32.496Z,96649.50
2023-03-06T19:34:02.944Z,96649.71
2023-03-06T19:36:34.256Z,96650.91
2023-03-06T19:39:05.419Z,96647.62
2023-03-06T19:41:34.122Z,96644.47
2023-03-06T19:44:03.424Z,96641.34
2023-03-06T19:46:34.094Z,96637.98
2023-03-06T19:49:12.045Z,96633.74
2023-03-06T19:51:40.220Z,96633.40
2023-03-06T19:54:12.071Z,96633.08
2023-03-06T19:56:40.857Z,96630.64
2023-03-06T19:59:08.867Z,96629.73
2023-03-06T20:01:38.668Z,96630.34
2023-03-06T20:04:06.741Z,96629.52
2023-03-06T20:06:37.684Z,96624.34
2023-03-06T20:09:09.414Z,96621.12
2023-03-06T20:11:38.236Z,96617.66
2023-03-06T20:14:08.809Z,96612.48
2023-03-06T20:16:37.305Z,96607.52
2023-03-06T20:19:06.503Z,96602.81
2023-03-06T20:21:37.806Z,96601.92
2023-03-06T20:24:08.277Z,96599.49
2023-03-06T20:26:38.107Z,96595.87
2023-03-06T20:29:06.481Z,96592.75
2023-03-06T20:31:36.503Z,96588.85
2023-03-06T20:34:05.828Z,96583.33
2023-03-06T20:36:39.302Z,96585.47
2023-03-06T20:39:13.488Z,96587.52
2023-03-06T20:41:41.475Z,96580.08
2023-03-06T20:44:13.967Z,96580.45
2023-03-06T20:46:42.575Z,96577.46
2023-03-06T20:49:13.303Z,96575.80
2023-03-06T20:51:42.644Z,96573.44
2023-03-06T20:54:13.277Z,96571.23
2023-03-06T20:56:44.818Z,96571.58
2023-03-06T20:59:14.523Z,96574.92
2023-03-06T21:01:44.711Z,96578.30
2023-03-06T21:04:14.172Z,96575.67
2023-03-06T21:06:47.016Z,96572.95
2023-03-06T21:09:17.430Z,96575.48
2023-03-06T21:11:46.051Z,96578.18
2023-03-06T21:14:14.529Z,96576.05
2023-03-06T21:16:42.934Z,96574.77
2023-03-06T21:19:13.362Z,96576.70
2023-03-06T21:21:42.720Z,96579.20
2023-03-06T21:24:11.238Z,96574.11
2023-03-06T21:26:39.334Z,96571.77
2023-03-06T21:29:07.621Z,96577.27
2023-03-06T21:31:36.674Z,96579.27
2023-03-06T21:34:06.487Z,96579.98
2023-03-06T21:36:35.281Z,96580.50
2023-03-06T21:39:06.693Z,96579.02
2023-03-06T21:41:35.566Z,96574.70
2023-03-06T21:44:06.340Z,96570.11
2023-03-06T21:46:35.058Z,96572.07
2023-03-06T21:49:04.745Z,96571.09
2023-03-06T21:51:32.759Z,96569.50
2023-03-06T21:54:02.374Z,96566.59
2023-03-06T21:56:33.567Z,96563.32
2023-03-06T21:59:01.968Z,96560.59
2023-03-06T22:01:31.057Z,96559.58
2023-03-06T22:04:00.122Z,96559.77
2023-03-06T22:06:30.760Z,96558.82
2023-03-06T22:09:00.428Z,96556.88
2023-03-06T22:11:31.696Z,96558.72
2023-03-06T22:14:00.233Z,96556.63
2023-03-06T22:16:28.380Z,96551.88
2023-03-06T22:18:56.878Z,96550.58
2023-03-06T22:21:25.501Z,96548.44
2023-03-06T22:23:57.544Z,96543.30
2023-03-06T22:26:27.662Z,96540.54
2023-03-06T22:28:56.523Z,96543.02
2023-03-06T22:31:27.202Z,96548.42
2023-03-06T22:33:57.510Z,96545.30
2023-03-06T22:36:30.590Z,96551.16
2023-03-06T22:39:02.651Z,96554.96
2023-03-06T22:41:31.137Z,96557.30
2023-03-06T22:44:01.029Z,96560.84
2023-03-06T22:46:31.993Z,96563.50
2023-03-06T22:49:00.881Z,96566.30
2023-03-06T22:51:30.038Z,96567.36
2023-03-06T22:53:58.558Z,96568.20
2023-03-06T22:56:26.746Z,96562.65
2023-03-06T22:58:54.998Z,96564.11
2023-03-06T23:01:25.756Z,96566.62
2023-03-06T23:03:59.017Z,96569.39
2023-03-06T23:06:31.818Z,96572.23
2023-03-06T23:09:20.700Z,96573.37
2023-03-06T23:12:09.196Z,96573.38
2023-03-06T23:14:55.758Z,96575.05
2023-03-06T23:17:42.735Z,96575.80
2023-03-06T23:20:29.257Z,96575.30
2023-03-06T23:23:16.034Z,96576.92
2023-03-06T23:25:44.546Z,96575.18
2023-03-06T23:28:14.327Z,96575.31
2023-03-06T23:30:42.377Z,96574.17
2023-03-06T23:33:11.178Z,96576.70
2023-03-06T23:35:39.248Z,96581.77
2023-03-06T23:38:07.773Z,96585.02
2023-03-06T23:40:38.675Z,96589.42
2023-03-06T23:43:07.338Z,96585.61
2023-03-06T23:45:35.615Z,96592.64
2023-03-06T23:48:07.857Z,96593.55
2023-03-06T23:50:39.793Z,96594.49
2023-03-06T23:53:07.742Z,96596.34
2023-03-06T23:55:36.048Z,96596.17
2023-03-06T23:58:04.287Z,96602.81
